Погода Асисна неделю

Сан-Паулу, Бразилия

14 - 20 июня
  • 14июня
    Сегодня
    +20°
    +31°
    Ясно и безоблачно
    ВремяПогодаТемператураВлажностьДавлениеВетер, м/сВероятность осадков
    00:00Ясно и безоблачно+20°C45 %714 мм3.5 м/с5 %
    03:00Ясно и безоблачно+20°C51 %714 мм3.9 м/с5 %
    06:00Ясно и безоблачно+19°C58 %714 мм3.7 м/с5 %
    09:00Ясно и безоблачно+23°C50 %716 мм4.1 м/с5 %
    12:00Ясно и безоблачно+28°C37 %716 мм5.5 м/с5 %
    15:00Ясно и безоблачно+30°C33 %714 мм5.1 м/с5 %
    18:00Ясно и безоблачно+27°C43 %714 мм2.2 м/с5 %
    21:00Ясно и безоблачно+24°C55 %715 мм2.3 м/с5 %
  • 15июня
    Суббота
    +19°
    +32°
    Ясно и безоблачно
    ВремяПогодаТемператураВлажностьДавлениеВетер, м/сВероятность осадков
    00:00Ясно и безоблачно+21°C61 %715 мм2.2 м/с5 %
    03:00Ясно и безоблачно+21°C60 %715 мм2.7 м/с5 %
    06:00Ясно и безоблачно+21°C56 %715 мм3.6 м/с5 %
    09:00Ясно и безоблачно+24°C49 %717 мм3.9 м/с5 %
    12:00Ясно и безоблачно+29°C36 %717 мм4.8 м/с5 %
    15:00Ясно и безоблачно+32°C29 %716 мм3.2 м/с5 %
    18:00Ясно и безоблачно+27°C41 %715 мм2.2 м/с5 %
    21:00Ясно и безоблачно+25°C48 %715 мм2.9 м/с5 %
  • 16июня
    Воскресенье
    +20°
    +32°
    Практически безоблачно
    ВремяПогодаТемператураВлажностьДавлениеВетер, м/сВероятность осадков
    00:00Ясно и безоблачно+23°C50 %715 мм3.3 м/с5 %
    03:00Ясно и безоблачно+22°C55 %715 мм2.8 м/с5 %
    06:00Ясно и безоблачно+20°C60 %714 мм2.4 м/с5 %
    09:00Ясно и безоблачно+26°C44 %716 мм2.6 м/с5 %
    12:00Практически безоблачно+30°C32 %716 мм4.5 м/с5 %
    15:00Практически безоблачно+32°C28 %714 мм3.7 м/с5 %
    18:00Ясно и безоблачно+28°C38 %713 мм2.2 м/с5 %
    21:00Ясно и безоблачно+25°C44 %714 мм2.7 м/с5 %
  • 17июня
    Понедельник
    +19°
    +32°
    Практически безоблачно
    ВремяПогодаТемператураВлажностьДавлениеВетер, м/сВероятность осадков
    00:00Ясно и безоблачно+21°C55 %713 мм2.3 м/с5 %
    03:00Небольшая облачность+21°C58 %712 мм2.6 м/с5 %
    06:00Небольшая облачность+21°C59 %712 мм3.1 м/с5 %
    09:00Практически безоблачно+24°C46 %714 мм3.8 м/с5 %
    12:00Небольшая облачность+30°C32 %714 мм5.1 м/с5 %
    15:00Практически безоблачно+31°C24 %712 мм3.9 м/с5 %
    18:00Ясно и безоблачно+28°C33 %711 мм2.5 м/с5 %
    21:00Ясно и безоблачно+26°C42 %712 мм3.8 м/с5 %
  • 18июня
    Вторник
    +19°
    +32°
    Ясно и безоблачно
    ВремяПогодаТемператураВлажностьДавлениеВетер, м/сВероятность осадков
    00:00Ясно и безоблачно+22°C46 %712 мм2.9 м/с5 %
    03:00Ясно и безоблачно+21°C54 %712 мм2.8 м/с5 %
    06:00Практически безоблачно+20°C49 %712 мм3.7 м/с5 %
    09:00Практически безоблачно+24°C43 %714 мм4.2 м/с5 %
    12:00Практически безоблачно+29°C28 %714 мм5.2 м/с5 %
    15:00Ясно и безоблачно+31°C25 %712 мм3.9 м/с5 %
    18:00Ясно и безоблачно+28°C34 %712 мм2.1 м/с5 %
    21:00Ясно и безоблачно+24°C42 %713 мм2.6 м/с5 %
Мы используем cookies
Соглашаюсь